createdAt,value
2018-11-22T00:00:29.552Z,100927.97
2018-11-22T00:03:00.468Z,100927.05
2018-11-22T00:05:42.670Z,100931.02
2018-11-22T00:08:12.141Z,100927.56
2018-11-22T00:10:42.844Z,100926.20
2018-11-22T00:13:13.903Z,100927.95
2018-11-22T00:15:43.451Z,100923.84
2018-11-22T00:18:14.498Z,100926.76
2018-11-22T00:20:44.367Z,100924.53
2018-11-22T00:23:14.230Z,100925.70
2018-11-22T00:25:44.499Z,100926.87
2018-11-22T00:28:14.918Z,100920.53
2018-11-22T00:30:44.639Z,100913.63
2018-11-22T00:33:14.060Z,100922.20
2018-11-22T00:35:44.299Z,100920.72
2018-11-22T00:38:14.130Z,100918.58
2018-11-22T00:40:44.837Z,100922.68
2018-11-22T00:43:14.648Z,100919.13
2018-11-22T00:45:45.116Z,100931.97
2018-11-22T00:48:15.072Z,100926.20
2018-11-22T00:50:44.875Z,100924.79
2018-11-22T00:53:15.198Z,100928.19
2018-11-22T00:55:45.403Z,100919.94
2018-11-22T00:58:14.940Z,100925.34
2018-11-22T01:00:45.233Z,100931.25
2018-11-22T01:03:15.426Z,100925.73
2018-11-22T01:05:45.928Z,100922.42
2018-11-22T01:08:16.055Z,100919.82
2018-11-22T01:10:45.837Z,100921.74
2018-11-22T01:13:15.513Z,100922.73
2018-11-22T01:15:45.818Z,100917.14
2018-11-22T01:18:15.333Z,100916.19
2018-11-22T01:20:46.397Z,100918.52
2018-11-22T01:23:26.410Z,100909.87
2018-11-22T01:25:56.512Z,100914.97
2018-11-22T01:28:26.902Z,100908.70
2018-11-22T01:30:56.726Z,100912.42
2018-11-22T01:33:27.037Z,100908.70
2018-11-22T01:35:57.206Z,100906.09
2018-11-22T01:38:26.952Z,100914.53
2018-11-22T01:40:56.955Z,100911.56
2018-11-22T01:43:26.706Z,100912.20
2018-11-22T01:45:56.893Z,100909.59
2018-11-22T01:48:26.249Z,100903.82
2018-11-22T01:50:55.795Z,100905.88
2018-11-22T01:53:26.033Z,100904.02
2018-11-22T01:55:56.667Z,100911.72
2018-11-22T01:58:26.213Z,100910.34
2018-11-22T02:00:56.224Z,100902.04
2018-11-22T02:03:26.388Z,100916.67
2018-11-22T02:05:56.372Z,100907.23
2018-11-22T02:08:26.994Z,100911.36
2018-11-22T02:10:56.968Z,100911.47
2018-11-22T02:13:26.571Z,100909.48
2018-11-22T02:15:56.674Z,100909.98
2018-11-22T02:18:26.291Z,100904.02
2018-11-22T02:20:55.942Z,100908.37
2018-11-22T02:23:25.651Z,100913.22
2018-11-22T02:25:55.601Z,100903.99
2018-11-22T02:28:25.069Z,100899.35
2018-11-22T02:30:55.456Z,100902.34
2018-11-22T02:33:25.052Z,100900.47
2018-11-22T02:35:55.144Z,100904.87
2018-11-22T02:38:24.782Z,100898.69
2018-11-22T02:40:54.792Z,100905.68
2018-11-22T02:43:24.474Z,100907.38
2018-11-22T02:45:53.785Z,100909.28
2018-11-22T02:48:23.481Z,100908.17
2018-11-22T02:50:53.455Z,100901.41
2018-11-22T02:53:23.897Z,100902.84
2018-11-22T02:55:53.524Z,100902.02
2018-11-22T02:58:24.195Z,100906.38
2018-11-22T03:00:55.500Z,100908.36
2018-11-22T03:03:25.325Z,100899.85
2018-11-22T03:05:54.742Z,100904.77
2018-11-22T03:08:24.701Z,100910.20
2018-11-22T03:10:54.602Z,100908.92
2018-11-22T03:13:24.755Z,100910.84
2018-11-22T03:15:54.513Z,100917.66
2018-11-22T03:18:25.186Z,100910.09
2018-11-22T03:20:55.613Z,100916.00
2018-11-22T03:23:26.154Z,100909.53
2018-11-22T03:25:56.633Z,100911.59
2018-11-22T03:28:27.030Z,100912.28
2018-11-22T03:30:56.859Z,100912.47
2018-11-22T03:33:27.252Z,100909.48
2018-11-22T03:35:57.887Z,100915.38
2018-11-22T03:38:28.030Z,100916.19
2018-11-22T03:40:57.810Z,100912.83
2018-11-22T03:43:28.078Z,100917.30
2018-11-22T03:45:57.881Z,100919.60
2018-11-22T03:48:27.342Z,100911.28
2018-11-22T03:50:57.581Z,100913.08
2018-11-22T03:53:28.045Z,100918.30
2018-11-22T03:56:10.379Z,100918.06
2018-11-22T03:58:40.214Z,100906.95
2018-11-22T04:01:09.969Z,100911.83
2018-11-22T04:03:39.939Z,100909.17
2018-11-22T04:06:09.859Z,100909.50
2018-11-22T04:08:39.305Z,100907.75
2018-11-22T04:11:09.860Z,100913.28
2018-11-22T04:13:39.314Z,100910.86
2018-11-22T04:16:09.542Z,100916.38
2018-11-22T04:18:39.287Z,100914.07
2018-11-22T04:21:11.019Z,100910.73
2018-11-22T04:23:41.350Z,100911.03
2018-11-22T04:26:11.343Z,100913.22
2018-11-22T04:28:41.832Z,100914.95
2018-11-22T04:31:12.392Z,100908.86
2018-11-22T04:33:42.712Z,100910.05
2018-11-22T04:36:13.077Z,100907.95
2018-11-22T04:38:42.878Z,100919.36
2018-11-22T04:41:12.880Z,100912.53
2018-11-22T04:43:42.643Z,100915.03
2018-11-22T04:46:12.806Z,100915.03
2018-11-22T04:48:42.792Z,100909.23
2018-11-22T04:51:13.111Z,100910.79
2018-11-22T04:53:42.920Z,100905.03
2018-11-22T04:56:13.300Z,100908.86
2018-11-22T04:58:43.500Z,100905.83
2018-11-22T05:01:13.412Z,100908.25
2018-11-22T05:03:43.734Z,100907.63
2018-11-22T05:06:16.058Z,100906.06
2018-11-22T05:08:46.482Z,100906.00
2018-11-22T05:11:16.315Z,100911.91
2018-11-22T05:13:46.619Z,100910.41
2018-11-22T05:16:15.963Z,100910.43
2018-11-22T05:18:45.950Z,100908.73
2018-11-22T05:21:16.311Z,100908.13
2018-11-22T05:23:46.240Z,100906.38
2018-11-22T05:26:16.675Z,100909.62
2018-11-22T05:28:46.562Z,100916.75
2018-11-22T05:31:17.343Z,100919.06
2018-11-22T05:33:47.513Z,100902.58
2018-11-22T05:36:17.922Z,100911.36
2018-11-22T05:38:48.217Z,100914.88
2018-11-22T05:41:18.078Z,100910.49
2018-11-22T05:43:49.040Z,100908.36
2018-11-22T05:46:21.586Z,100911.89
2018-11-22T05:48:53.408Z,100910.66
2018-11-22T05:51:21.603Z,100909.48
2018-11-22T05:53:51.539Z,100915.57
2018-11-22T05:56:21.401Z,100914.50
2018-11-22T05:58:52.084Z,100918.80
2018-11-22T06:01:23.402Z,100919.55
2018-11-22T06:03:53.891Z,100920.41
2018-11-22T06:06:24.704Z,100919.72
2018-11-22T06:08:56.238Z,100922.33
2018-11-22T06:11:27.214Z,100923.10
2018-11-22T06:13:57.984Z,100929.13
2018-11-22T06:16:28.228Z,100929.30
2018-11-22T06:18:59.028Z,100932.77
2018-11-22T06:21:28.645Z,100934.25
2018-11-22T06:23:58.964Z,100940.84
2018-11-22T06:26:29.235Z,100944.72
2018-11-22T06:28:59.057Z,100939.66
2018-11-22T06:31:30.353Z,100940.81
2018-11-22T06:34:00.388Z,100941.91
2018-11-22T06:36:30.348Z,100945.37
2018-11-22T06:38:59.914Z,100942.09
2018-11-22T06:41:30.183Z,100944.80
2018-11-22T06:43:59.882Z,100946.18
2018-11-22T06:46:30.309Z,100946.86
2018-11-22T06:49:00.406Z,100942.59
2018-11-22T06:51:30.919Z,100948.43
2018-11-22T06:54:01.766Z,100954.07
2018-11-22T06:56:32.525Z,100955.55
2018-11-22T06:59:07.267Z,100960.77
2018-11-22T07:01:37.115Z,100961.28
2018-11-22T07:04:11.094Z,100966.83
2018-11-22T07:06:41.584Z,100959.05
2018-11-22T07:09:11.813Z,100962.64
2018-11-22T07:11:43.268Z,100965.81
2018-11-22T07:14:13.827Z,100965.40
2018-11-22T07:16:43.503Z,100965.16
2018-11-22T07:19:12.965Z,100966.32
2018-11-22T07:21:44.350Z,100963.59
2018-11-22T07:24:19.638Z,100970.23
2018-11-22T07:26:49.594Z,100976.44
2018-11-22T07:29:21.194Z,100974.03
2018-11-22T07:31:52.021Z,100968.48
2018-11-22T07:34:23.850Z,100973.29
2018-11-22T07:36:54.607Z,100973.65
2018-11-22T07:39:27.654Z,100970.23
2018-11-22T07:42:01.676Z,100973.83
2018-11-22T07:44:34.773Z,100973.53
2018-11-22T07:47:09.659Z,100974.03
2018-11-22T07:49:39.917Z,100980.73
2018-11-22T07:52:11.815Z,100978.52
2018-11-22T07:54:45.115Z,100976.70
2018-11-22T07:57:15.469Z,100979.55
2018-11-22T07:59:48.460Z,100977.56
2018-11-22T08:02:19.828Z,100981.09
2018-11-22T08:04:51.617Z,100983.58
2018-11-22T08:07:21.667Z,100979.96
2018-11-22T08:09:52.189Z,100979.66
2018-11-22T08:12:26.008Z,100978.36
2018-11-22T08:14:52.105Z,100987.23
2018-11-22T08:17:21.486Z,100982.10
2018-11-22T08:19:51.799Z,100979.22
2018-11-22T08:22:24.143Z,100990.23
2018-11-22T08:24:53.644Z,100987.67
2018-11-22T08:27:23.821Z,100989.28
2018-11-22T08:29:54.834Z,100990.24
2018-11-22T08:32:24.349Z,100992.61
2018-11-22T08:34:53.899Z,100996.66
2018-11-22T08:37:24.316Z,100992.50
2018-11-22T08:39:54.582Z,101001.31
2018-11-22T08:42:24.097Z,101001.31
2018-11-22T08:44:54.685Z,100996.47
2018-11-22T08:47:24.769Z,101002.55
2018-11-22T08:49:54.673Z,101006.47
2018-11-22T08:52:25.264Z,101010.01
2018-11-22T08:54:55.800Z,101012.71
2018-11-22T08:57:26.736Z,101020.45
2018-11-22T09:00:01.006Z,101013.84
2018-11-22T09:02:31.133Z,101009.97
2018-11-22T09:05:01.508Z,101010.84
2018-11-22T09:07:31.830Z,101015.51
2018-11-22T09:10:02.385Z,101008.95
2018-11-22T09:12:32.712Z,101011.86
2018-11-22T09:15:04.707Z,101012.83
2018-11-22T09:17:35.251Z,101013.50
2018-11-22T09:20:05.533Z,101019.84
2018-11-22T09:22:35.884Z,101015.31
2018-11-22T09:25:06.310Z,101021.05
2018-11-22T09:27:37.236Z,101017.59
2018-11-22T09:30:13.441Z,101016.81
2018-11-22T09:32:44.110Z,101011.56
2018-11-22T09:35:17.132Z,101016.31
2018-11-22T09:37:48.698Z,101014.33
2018-11-22T09:40:23.536Z,101006.72
2018-11-22T09:42:53.010Z,101006.43
2018-11-22T09:45:26.895Z,101004.96
2018-11-22T09:47:56.883Z,101005.88
2018-11-22T09:50:28.504Z,101008.78
2018-11-22T09:53:06.898Z,101007.19
2018-11-22T09:55:37.960Z,101007.61
2018-11-22T09:58:12.669Z,101011.88
2018-11-22T10:00:43.627Z,101013.19
2018-11-22T10:03:17.312Z,101013.34
2018-11-22T10:05:58.388Z,101015.70
2018-11-22T10:08:37.018Z,101007.36
2018-11-22T10:11:13.547Z,101009.03
2018-11-22T10:13:47.971Z,101010.56
2018-11-22T10:16:24.616Z,101008.91
2018-11-22T10:18:56.198Z,101013.45
2018-11-22T10:21:30.565Z,101013.52
2018-11-22T10:24:09.257Z,101011.44
2018-11-22T10:26:40.749Z,101002.43
2018-11-22T10:29:15.164Z,101008.83
2018-11-22T10:31:46.331Z,101002.34
2018-11-22T10:34:16.963Z,101004.17
2018-11-22T10:36:47.382Z,101006.78
2018-11-22T10:41:46.668Z,101008.39
2018-11-22T10:44:16.707Z,101007.00
2018-11-22T10:46:46.981Z,101011.08
2018-11-22T10:49:19.015Z,101006.78
2018-11-22T10:51:49.189Z,101007.29
2018-11-22T10:54:21.934Z,101001.93
2018-11-22T10:56:51.946Z,101005.86
2018-11-22T10:59:22.848Z,101004.67
2018-11-22T11:02:10.004Z,101006.36
2018-11-22T11:04:57.145Z,101004.74
2018-11-22T11:07:46.379Z,101007.88
2018-11-22T11:10:16.918Z,101011.36
2018-11-22T11:12:49.220Z,101008.22
2018-11-22T11:15:19.547Z,101002.43
2018-11-22T11:17:50.055Z,100999.68
2018-11-22T11:20:20.496Z,100997.17
2018-11-22T11:22:51.192Z,100994.73
2018-11-22T11:25:21.355Z,100989.26
2018-11-22T11:27:50.926Z,100988.98
2018-11-22T11:30:20.883Z,100980.61
2018-11-22T11:32:51.213Z,100981.39
2018-11-22T11:35:22.552Z,100978.39
2018-11-22T11:38:08.053Z,100982.97
2018-11-22T11:40:47.928Z,100979.70
2018-11-22T11:43:17.855Z,100981.27
2018-11-22T11:45:53.070Z,100974.06
2018-11-22T11:48:23.475Z,100973.72
2018-11-22T11:50:53.837Z,100980.24
2018-11-22T11:53:27.137Z,100972.31
2018-11-22T11:55:53.435Z,100964.43
2018-11-22T11:58:23.508Z,100971.92
2018-11-22T12:00:53.875Z,100967.62
2018-11-22T12:03:23.718Z,100964.11
2018-11-22T12:05:54.007Z,100962.09
2018-11-22T12:08:23.565Z,100959.88
2018-11-22T12:10:53.123Z,100966.91
2018-11-22T12:13:23.146Z,100964.50
2018-11-22T12:15:53.175Z,100968.16
2018-11-22T12:18:23.214Z,100967.64
2018-11-22T12:20:53.933Z,100960.95
2018-11-22T12:23:23.670Z,100959.30
2018-11-22T12:25:54.393Z,100961.72
2018-11-22T12:28:24.599Z,100957.09
2018-11-22T12:30:54.899Z,100957.30
2018-11-22T12:33:41.118Z,100958.33
2018-11-22T12:36:24.708Z,100953.23
2018-11-22T12:39:04.724Z,100964.84
2018-11-22T12:41:43.193Z,100955.00
2018-11-22T12:44:13.544Z,100951.33
2018-11-22T12:46:44.450Z,100952.64
2018-11-22T12:49:14.401Z,100955.86
2018-11-22T12:51:44.679Z,100953.55
2018-11-22T12:54:14.601Z,100952.59
2018-11-22T12:56:44.041Z,100959.94
2018-11-22T12:59:13.621Z,100955.47
2018-11-22T13:01:43.587Z,100958.10
2018-11-22T13:04:13.806Z,100955.33
2018-11-22T13:06:43.641Z,100957.52
2018-11-22T13:09:13.939Z,100953.88
2018-11-22T13:11:47.759Z,100960.19
2018-11-22T13:14:13.549Z,100959.55
2018-11-22T13:16:45.014Z,100954.31
2018-11-22T13:19:14.476Z,100962.41
2018-11-22T13:21:44.530Z,100961.12
2018-11-22T13:24:14.241Z,100963.45
2018-11-22T13:26:44.625Z,100962.55
2018-11-22T13:29:14.391Z,100969.37
2018-11-22T13:31:44.224Z,100957.91
2018-11-22T13:34:14.466Z,100963.34
2018-11-22T13:36:44.344Z,100955.86
2018-11-22T13:39:14.202Z,100964.51
2018-11-22T13:41:44.401Z,100964.51
2018-11-22T13:44:16.399Z,100952.80
2018-11-22T13:46:46.044Z,100959.66
2018-11-22T13:49:15.831Z,100955.75
2018-11-22T13:51:46.301Z,100951.81
2018-11-22T13:54:16.220Z,100953.67
2018-11-22T13:56:45.693Z,100950.52
2018-11-22T13:59:15.878Z,100953.27
2018-11-22T14:01:45.358Z,100954.96
2018-11-22T14:04:15.642Z,100953.92
2018-11-22T14:07:38.446Z,100956.08
2018-11-22T14:12:59.316Z,100955.23
2018-11-22T14:15:30.605Z,100956.09
2018-11-22T14:18:01.767Z,100969.56
2018-11-22T14:20:32.982Z,100962.43
2018-11-22T14:23:03.049Z,100957.33
2018-11-22T14:25:32.470Z,100961.36
2018-11-22T14:28:01.751Z,100961.64
2018-11-22T14:30:32.792Z,100957.06
2018-11-22T14:33:02.073Z,100966.22
2018-11-22T14:35:31.781Z,100962.44
2018-11-22T14:38:01.508Z,100961.88
2018-11-22T14:40:33.060Z,100962.95
2018-11-22T14:43:03.270Z,100958.23
2018-11-22T14:45:33.525Z,100956.55
2018-11-22T14:48:04.958Z,100956.78
2018-11-22T14:50:38.000Z,100961.23
2018-11-22T14:53:23.356Z,100957.98
2018-11-22T14:55:53.447Z,100956.78
2018-11-22T14:58:23.504Z,100958.88
2018-11-22T15:00:54.435Z,100957.30
2018-11-22T15:03:24.423Z,100960.47
2018-11-22T15:05:54.385Z,100962.95
2018-11-22T15:08:24.497Z,100957.95
2018-11-22T15:10:54.532Z,100963.91
2018-11-22T15:13:24.823Z,100966.98
2018-11-22T15:15:54.886Z,100962.02
2018-11-22T15:18:25.064Z,100967.84
2018-11-22T15:21:00.898Z,100962.22
2018-11-22T15:23:25.252Z,100967.03
2018-11-22T15:25:55.209Z,100966.94
2018-11-22T15:28:26.921Z,100962.95
2018-11-22T15:30:56.974Z,100963.26
2018-11-22T15:33:27.088Z,100964.95
2018-11-22T15:35:57.481Z,100964.50
2018-11-22T15:38:27.526Z,100966.97
2018-11-22T15:41:09.244Z,100967.11
2018-11-22T15:43:48.852Z,100968.83
2018-11-22T15:46:18.804Z,100967.69
2018-11-22T15:48:48.886Z,100972.06
2018-11-22T15:51:19.736Z,100968.55
2018-11-22T15:53:49.771Z,100971.45
2018-11-22T15:56:19.842Z,100972.55
2018-11-22T15:58:50.592Z,100972.41
2018-11-22T16:01:20.735Z,100965.66
2018-11-22T16:03:50.629Z,100969.78
2018-11-22T16:06:21.372Z,100969.34
2018-11-22T16:08:50.646Z,100974.57
2018-11-22T16:11:21.075Z,100980.98
2018-11-22T16:13:51.165Z,100988.83
2018-11-22T16:16:21.364Z,100983.16
2018-11-22T16:18:51.385Z,100981.34
2018-11-22T16:21:21.360Z,100985.61
2018-11-22T16:24:08.182Z,100988.61
2018-11-22T16:29:27.642Z,100992.59
2018-11-22T16:31:57.868Z,100981.79
2018-11-22T16:34:27.789Z,100980.96
2018-11-22T16:37:03.008Z,100981.42
2018-11-22T16:39:34.487Z,100988.03
2018-11-22T16:42:05.910Z,100984.12
2018-11-22T16:44:37.015Z,100988.97
2018-11-22T16:47:07.149Z,100984.70
2018-11-22T16:49:37.156Z,100982.43
2018-11-22T16:52:08.048Z,100985.70
2018-11-22T16:54:39.745Z,100987.52
2018-11-22T16:57:10.079Z,100984.12
2018-11-22T16:59:40.725Z,100988.69
2018-11-22T17:02:11.238Z,100979.81
2018-11-22T17:04:41.218Z,100987.30
2018-11-22T17:07:11.284Z,100985.20
2018-11-22T17:09:41.475Z,100987.50
2018-11-22T17:12:11.508Z,100982.93
2018-11-22T17:14:41.539Z,100988.16
2018-11-22T17:17:11.798Z,100990.78
2018-11-22T17:19:41.714Z,100989.05
2018-11-22T17:22:11.728Z,100987.52
2018-11-22T17:24:41.787Z,100980.61
2018-11-22T17:27:12.214Z,100977.94
2018-11-22T17:29:42.211Z,100982.14
2018-11-22T17:32:12.235Z,100981.55
2018-11-22T17:34:42.244Z,100976.91
2018-11-22T17:37:12.226Z,100975.74
2018-11-22T17:39:42.171Z,100978.49
2018-11-22T17:42:14.569Z,100973.36
2018-11-22T17:44:44.577Z,100980.77
2018-11-22T17:47:14.651Z,100978.49
2018-11-22T17:49:44.722Z,100981.20
2018-11-22T17:52:14.815Z,100977.78
2018-11-22T17:54:44.821Z,100979.09
2018-11-22T17:57:14.783Z,100976.61
2018-11-22T17:59:44.835Z,100973.73
2018-11-22T18:02:16.872Z,100974.38
2018-11-22T18:04:46.893Z,100975.31
2018-11-22T18:07:16.755Z,100972.17
2018-11-22T18:09:47.065Z,100974.95
2018-11-22T18:12:17.080Z,100970.58
2018-11-22T18:14:47.292Z,100970.86
2018-11-22T18:17:17.252Z,100966.22
2018-11-22T18:19:47.495Z,100967.44
2018-11-22T18:22:17.731Z,100963.19
2018-11-22T18:24:48.404Z,100960.78
2018-11-22T18:27:18.412Z,100965.95
2018-11-22T18:29:48.330Z,100960.41
2018-11-22T18:32:18.448Z,100960.14
2018-11-22T18:34:48.513Z,100972.32
2018-11-22T18:37:18.600Z,100972.83
2018-11-22T18:39:48.690Z,100974.28
2018-11-22T18:42:18.605Z,100971.11
2018-11-22T18:44:48.706Z,100965.20
2018-11-22T18:47:20.110Z,100966.58
2018-11-22T18:49:50.207Z,100966.44
2018-11-22T18:52:20.838Z,100966.44
2018-11-22T18:54:50.903Z,100972.32
2018-11-22T18:57:21.161Z,100964.87
2018-11-22T18:59:51.235Z,100967.23
2018-11-22T19:02:21.105Z,100972.19
2018-11-22T19:04:53.242Z,100971.23
2018-11-22T19:07:23.250Z,100971.02
2018-11-22T19:09:53.542Z,100973.27
2018-11-22T19:12:24.016Z,100968.92
2018-11-22T19:14:54.921Z,100969.52
2018-11-22T19:20:37.716Z,100965.00
2018-11-22T19:23:09.365Z,100970.52
2018-11-22T19:25:39.563Z,100972.33
2018-11-22T19:28:10.784Z,100970.52
2018-11-22T19:30:42.596Z,100970.76
2018-11-22T19:33:14.268Z,100968.28
2018-11-22T19:35:46.316Z,100972.20
2018-11-22T19:38:16.262Z,100962.53
2018-11-22T19:40:46.397Z,100968.28
2018-11-22T19:43:18.003Z,100968.72
2018-11-22T19:45:49.499Z,100968.11
2018-11-22T19:48:19.626Z,100967.31
2018-11-22T19:50:49.626Z,100969.72
2018-11-22T19:53:19.633Z,100974.23
2018-11-22T19:55:49.825Z,100977.71
2018-11-22T19:58:19.869Z,100972.78
2018-11-22T20:00:49.874Z,100973.64
2018-11-22T20:03:21.093Z,100975.16
2018-11-22T20:05:51.098Z,100976.92
2018-11-22T20:08:21.585Z,100986.34
2018-11-22T20:10:52.188Z,100987.89
2018-11-22T20:13:22.103Z,100987.23
2018-11-22T20:15:52.214Z,100989.05
2018-11-22T20:18:22.237Z,100986.44
2018-11-22T20:20:53.445Z,100992.47
2018-11-22T20:23:24.625Z,100990.20
2018-11-22T20:25:55.387Z,100990.64
2018-11-22T20:28:25.681Z,100989.72
2018-11-22T20:30:57.807Z,100986.34
2018-11-22T20:33:28.878Z,100992.27
2018-11-22T20:35:58.841Z,100991.44
2018-11-22T20:38:29.979Z,100996.30
2018-11-22T20:40:59.921Z,100995.38
2018-11-22T20:43:31.741Z,100993.11
2018-11-22T20:46:01.852Z,100997.86
2018-11-22T20:48:33.604Z,100994.84
2018-11-22T20:51:03.558Z,100995.81
2018-11-22T20:53:33.633Z,100991.30
2018-11-22T20:56:03.588Z,100991.09
2018-11-22T20:58:33.784Z,100994.84
2018-11-22T21:01:03.877Z,100997.98
2018-11-22T21:03:34.691Z,100996.73
2018-11-22T21:06:07.271Z,100998.80
2018-11-22T21:08:37.417Z,101004.15
2018-11-22T21:11:07.454Z,101000.67
2018-11-22T21:13:37.403Z,101002.03
2018-11-22T21:16:08.112Z,100997.91
2018-11-22T21:18:38.620Z,100995.94
2018-11-22T21:21:10.755Z,100991.61
2018-11-22T21:23:40.707Z,100991.01
2018-11-22T21:26:14.478Z,100995.21
2018-11-22T21:28:40.820Z,100997.31
2018-11-22T21:31:10.896Z,100996.08
2018-11-22T21:33:40.872Z,101004.09
2018-11-22T21:36:10.896Z,101010.91
2018-11-22T21:38:40.836Z,101000.73
2018-11-22T21:41:10.927Z,101006.70
2018-11-22T21:43:40.815Z,101004.90
2018-11-22T21:46:10.879Z,101006.48
2018-11-22T21:48:41.010Z,101007.27
2018-11-22T21:54:01.849Z,101004.97
2018-11-22T21:56:32.059Z,101009.88
2018-11-22T21:59:02.126Z,101007.36
2018-11-22T22:01:32.079Z,101007.63
2018-11-22T22:04:02.143Z,101009.88
2018-11-22T22:06:32.356Z,101009.60
2018-11-22T22:09:05.149Z,101011.04
2018-11-22T22:11:35.348Z,101010.89
2018-11-22T22:14:05.298Z,101009.98
2018-11-22T22:16:36.387Z,101013.45
2018-11-22T22:19:05.394Z,101015.41
2018-11-22T22:21:35.520Z,101010.77
2018-11-22T22:24:05.765Z,101011.95
2018-11-22T22:26:35.791Z,101007.20
2018-11-22T22:29:05.787Z,101017.73
2018-11-22T22:31:35.763Z,101009.68
2018-11-22T22:34:06.062Z,101013.33
2018-11-22T22:36:35.935Z,101015.41
2018-11-22T22:39:10.591Z,101015.57
2018-11-22T22:41:40.529Z,101011.62
2018-11-22T22:44:10.533Z,101015.30
2018-11-22T22:46:40.587Z,101007.98
2018-11-22T22:49:10.531Z,101006.65
2018-11-22T22:51:40.808Z,101004.10
2018-11-22T22:54:10.776Z,101006.20
2018-11-22T22:56:40.765Z,101009.01
2018-11-22T22:59:10.799Z,101008.50
2018-11-22T23:01:40.782Z,101003.52
2018-11-22T23:04:10.892Z,101004.83
2018-11-22T23:06:40.831Z,101006.52
2018-11-22T23:12:07.093Z,101002.57
2018-11-22T23:14:37.062Z,101008.34
2018-11-22T23:17:07.154Z,100995.02
2018-11-22T23:19:37.129Z,100996.98
2018-11-22T23:22:07.112Z,100995.55
2018-11-22T23:24:37.153Z,100999.87
2018-11-22T23:27:07.279Z,100997.38
2018-11-22T23:29:37.220Z,100993.47
2018-11-22T23:32:07.127Z,100993.03
2018-11-22T23:34:37.263Z,100993.47
2018-11-22T23:37:07.857Z,100994.91
2018-11-22T23:39:37.843Z,100990.48
2018-11-22T23:42:07.853Z,100991.27
2018-11-22T23:44:37.834Z,100993.09
2018-11-22T23:47:07.953Z,100988.91
2018-11-22T23:49:38.268Z,100992.96
2018-11-22T23:52:08.248Z,100993.98
2018-11-22T23:54:38.233Z,100989.87
2018-11-22T23:57:08.267Z,100995.20
2018-11-22T23:59:38.251Z,100992.96
